Time;durP1;ratioP1;P1;durP2;ratioP2;P2;SDS_P1;SDS_P2;PMS_P1;PMS_P2;Temp;Humidity;BMP_temperature;BMP_pressure;BME280_temperature;BME280_humidity;BME280_pressure;Samples;Min_cycle;Max_cycle;Signal;HPM_P1;HPM_P2
2023/12/11 00:00:00;;;;;;;33.92;4.80;;;7.70;99.90;;;;;;6190198;23;20023;-80
2023/12/11 00:02:25;;;;;;;33.55;5.50;;;7.70;99.90;;;;;;6189639;23;20039;-79
2023/12/11 00:04:51;;;;;;;42.75;6.10;;;7.60;99.90;;;;;;6189641;23;20404;-79
2023/12/11 00:07:17;;;;;;;29.30;4.70;;;7.60;99.90;;;;;;6189591;23;20029;-79
2023/12/11 00:09:42;;;;;;;33.58;5.55;;;7.60;99.90;;;;;;6189402;23;20047;-79
2023/12/11 00:12:08;;;;;;;34.90;5.20;;;7.60;99.90;;;;;;6216756;23;20024;-79
2023/12/11 00:14:34;;;;;;;26.23;4.70;;;7.60;99.90;;;;;;6189685;23;20110;-79
2023/12/11 00:17:00;;;;;;;42.17;5.57;;;7.60;99.90;;;;;;6215981;23;20021;-79
2023/12/11 00:19:26;;;;;;;43.22;6.15;;;7.60;99.90;;;;;;6189603;23;20437;-79
2023/12/11 00:21:51;;;;;;;45.53;6.35;;;7.60;99.90;;;;;;6189515;23;20016;-79
2023/12/11 00:24:17;;;;;;;36.95;5.82;;;7.60;99.90;;;;;;6189531;23;20016;-79
2023/12/11 00:26:42;;;;;;;31.25;4.80;;;7.60;99.90;;;;;;6188928;23;20013;-79
2023/12/11 00:29:09;;;;;;;55.70;8.43;;;7.60;99.90;;;;;;6189516;23;20092;-79
2023/12/11 00:31:35;;;;;;;38.42;4.95;;;7.60;99.90;;;;;;6189408;23;20013;-79
2023/12/11 00:34:01;;;;;;;37.15;6.13;;;7.60;99.90;;;;;;6189504;23;20027;-79
2023/12/11 00:36:27;;;;;;;49.47;6.00;;;7.70;99.90;;;;;;6189380;23;20326;-79
2023/12/11 00:38:55;;;;;;;39.95;6.05;;;7.70;99.90;;;;;;6189459;23;20025;-79
2023/12/11 00:41:21;;;;;;;42.55;6.80;;;7.70;99.90;;;;;;6189466;23;20332;-79
2023/12/11 00:43:46;;;;;;;47.17;6.28;;;7.70;99.90;;;;;;6189343;23;20020;-79
2023/12/11 00:46:13;;;;;;;46.42;5.82;;;7.70;99.90;;;;;;6189171;23;20017;-79
2023/12/11 00:48:42;;;;;;;36.83;6.93;;;7.80;99.90;;;;;;6189056;23;20027;-79
2023/12/11 00:51:15;;;;;;;46.90;6.75;;;7.80;99.90;;;;;;6189375;23;20091;-79
2023/12/11 00:53:44;;;;;;;44.35;7.55;;;7.80;99.90;;;;;;6189427;23;20020;-79
2023/12/11 00:56:09;;;;;;;45.78;7.47;;;7.80;99.90;;;;;;6189910;23;20012;-79
2023/12/11 00:58:38;;;;;;;53.13;7.88;;;7.80;99.90;;;;;;6216188;23;20116;-79
2023/12/11 01:01:04;;;;;;;47.17;6.78;;;7.80;99.90;;;;;;6189356;23;20024;-79
2023/12/11 01:03:30;;;;;;;48.33;6.30;;;7.80;99.90;;;;;;6189383;23;20039;-79
2023/12/11 01:05:55;;;;;;;49.55;8.02;;;7.80;99.90;;;;;;6189276;23;20013;-79
2023/12/11 01:08:21;;;;;;;48.28;6.53;;;7.90;99.90;;;;;;6189342;23;20021;-80
2023/12/11 01:10:47;;;;;;;34.67;6.80;;;7.90;99.90;;;;;;6188991;23;20376;-80
2023/12/11 01:13:13;;;;;;;44.13;6.38;;;7.90;99.90;;;;;;6189133;23;20457;-79
2023/12/11 01:15:38;;;;;;;41.80;5.90;;;7.90;99.90;;;;;;6189345;23;20376;-80
2023/12/11 01:18:04;;;;;;;38.80;5.53;;;7.90;99.90;;;;;;6189253;23;20016;-79
2023/12/11 01:20:30;;;;;;;35.83;5.88;;;7.90;99.90;;;;;;6189245;23;20015;-79
2023/12/11 01:22:55;;;;;;;46.17;8.02;;;7.90;99.90;;;;;;6189188;23;20052;-79
2023/12/11 01:25:21;;;;;;;46.60;5.63;;;7.90;99.90;;;;;;6215714;23;20027;-80
2023/12/11 01:27:49;;;;;;;43.05;6.60;;;8.00;99.90;;;;;;6189036;23;20017;-79
2023/12/11 01:30:15;;;;;;;41.03;6.85;;;8.00;99.90;;;;;;6189092;23;20023;-79
2023/12/11 01:32:40;;;;;;;45.83;7.20;;;8.00;99.90;;;;;;6189008;23;20047;-79
2023/12/11 01:35:06;;;;;;;45.03;7.07;;;8.10;99.90;;;;;;6215981;23;20017;-79
2023/12/11 01:37:32;;;;;;;44.30;5.72;;;8.00;99.90;;;;;;6189321;23;20020;-79
2023/12/11 01:39:57;;;;;;;37.20;6.53;;;8.10;99.90;;;;;;6217636;23;20020;-79
2023/12/11 01:42:23;;;;;;;37.70;6.00;;;8.00;99.90;;;;;;6190957;23;20016;-79
2023/12/11 01:44:49;;;;;;;45.50;7.13;;;8.00;99.90;;;;;;6190981;23;20445;-79
2023/12/11 01:47:14;;;;;;;43.85;5.78;;;8.00;99.90;;;;;;6191084;23;20013;-79
2023/12/11 01:49:40;;;;;;;38.25;7.13;;;8.00;99.90;;;;;;6217424;23;20078;-79
2023/12/11 01:52:09;;;;;;;46.55;8.20;;;8.00;99.90;;;;;;6190928;23;20027;-79
2023/12/11 01:54:37;;;;;;;44.45;8.30;;;8.00;99.90;;;;;;6190858;23;20013;-79
2023/12/11 01:57:03;;;;;;;38.03;7.32;;;8.00;99.90;;;;;;6190829;23;20024;-80
2023/12/11 01:59:28;;;;;;;33.90;5.57;;;8.10;99.90;;;;;;6190896;23;20476;-80
2023/12/11 02:01:54;;;;;;;38.17;5.95;;;8.00;99.90;;;;;;6190815;23;20018;-80
2023/12/11 02:04:20;;;;;;;44.13;5.80;;;8.10;99.90;;;;;;6217128;23;20016;-81
2023/12/11 02:06:46;;;;;;;38.67;6.90;;;8.10;99.90;;;;;;6217770;23;20493;-80
2023/12/11 02:09:12;;;;;;;38.05;6.80;;;8.10;99.90;;;;;;6190673;23;20104;-80
2023/12/11 02:11:42;;;;;;;46.17;6.75;;;8.10;99.90;;;;;;6190451;23;20100;-81
2023/12/11 02:14:08;;;;;;;36.25;5.90;;;8.20;99.90;;;;;;6217310;23;20021;-81
2023/12/11 02:16:34;;;;;;;38.25;5.57;;;8.10;99.90;;;;;;6190843;23;20040;-81
2023/12/11 02:18:59;;;;;;;34.25;5.70;;;8.10;99.90;;;;;;6190584;23;20056;-80
2023/12/11 02:21:25;;;;;;;38.53;5.90;;;8.10;99.90;;;;;;6190561;23;20091;-81
2023/12/11 02:24:11;;;;;;;35.80;5.25;;;8.10;99.90;;;;;;6190432;23;20021;-81
2023/12/11 02:26:37;;;;;;;40.13;5.88;;;8.10;99.90;;;;;;6190664;23;20087;-81
2023/12/11 02:29:02;;;;;;;34.65;5.93;;;8.00;99.90;;;;;;6217481;23;20048;-81
2023/12/11 02:31:28;;;;;;;30.50;5.57;;;8.00;99.90;;;;;;6190343;23;20027;-80
2023/12/11 02:33:54;;;;;;;41.00;6.20;;;8.00;99.90;;;;;;6190577;23;20349;-81
2023/12/11 02:36:19;;;;;;;41.88;7.65;;;8.00;99.90;;;;;;6190613;23;20031;-80
2023/12/11 02:38:45;;;;;;;41.28;6.18;;;8.10;99.90;;;;;;6190562;23;20016;-80
2023/12/11 02:41:14;;;;;;;33.83;6.47;;;8.10;99.90;;;;;;6190525;23;20013;-80
2023/12/11 02:43:39;;;;;;;36.88;8.45;;;8.10;99.90;;;;;;6190583;23;20031;-80
2023/12/11 02:46:05;;;;;;;38.80;8.20;;;8.10;99.90;;;;;;6190492;23;20095;-80
2023/12/11 02:48:31;;;;;;;33.08;7.43;;;8.10;99.90;;;;;;6190140;23;20016;-80
2023/12/11 02:50:56;;;;;;;46.08;7.72;;;8.10;99.90;;;;;;6190022;23;20104;-80
2023/12/11 02:53:28;;;;;;;54.08;10.38;;;8.10;99.90;;;;;;6190297;23;20013;-80
2023/12/11 02:55:53;;;;;;;37.90;7.88;;;8.10;99.90;;;;;;6190524;23;20023;-80
2023/12/11 02:58:19;;;;;;;45.70;7.90;;;8.10;99.90;;;;;;6190152;23;20020;-80
2023/12/11 03:00:45;;;;;;;42.97;6.15;;;8.20;99.90;;;;;;6190381;23;20016;-80
2023/12/11 03:03:10;;;;;;;48.45;8.10;;;8.20;99.90;;;;;;6217020;23;20044;-80
2023/12/11 03:05:39;;;;;;;46.83;7.80;;;8.20;99.90;;;;;;6190071;23;20040;-80
2023/12/11 03:08:07;;;;;;;43.85;8.25;;;8.20;99.90;;;;;;6190164;23;20448;-80
2023/12/11 03:10:33;;;;;;;34.25;5.60;;;8.20;99.90;;;;;;6189832;23;20044;-80
2023/12/11 03:12:58;;;;;;;41.00;6.78;;;8.20;99.90;;;;;;6190105;23;20032;-80
2023/12/11 03:15:24;;;;;;;49.92;6.10;;;8.20;99.90;;;;;;6190157;23;20013;-81
2023/12/11 03:17:50;;;;;;;51.00;8.55;;;8.10;99.90;;;;;;6190143;23;20020;-81
2023/12/11 03:20:15;;;;;;;40.95;7.55;;;8.10;99.90;;;;;;6217072;23;20020;-81
2023/12/11 03:22:42;;;;;;;42.45;7.93;;;8.10;99.90;;;;;;6216707;23;20425;-81
2023/12/11 03:25:07;;;;;;;42.63;6.95;;;8.10;99.90;;;;;;6190060;23;20071;-81
2023/12/11 03:27:33;;;;;;;32.45;7.13;;;8.20;99.90;;;;;;6190066;23;20440;-80
2023/12/11 03:29:59;;;;;;;56.08;8.90;;;8.20;99.90;;;;;;6216930;23;20040;-81
2023/12/11 03:32:25;;;;;;;52.45;6.65;;;8.20;99.90;;;;;;6189763;23;20024;-80
2023/12/11 03:34:50;;;;;;;46.85;6.88;;;8.20;99.90;;;;;;6189921;23;20016;-80
2023/12/11 03:37:16;;;;;;;48.40;6.15;;;8.10;99.90;;;;;;6189795;23;20026;-80
2023/12/11 03:39:41;;;;;;;44.58;6.78;;;8.10;99.90;;;;;;6189873;23;20017;-80
2023/12/11 03:42:09;;;;;;;51.63;7.25;;;8.10;99.90;;;;;;6189741;23;20091;-80
2023/12/11 03:44:35;;;;;;;45.30;7.18;;;8.00;99.90;;;;;;6189658;23;20353;-80
2023/12/11 03:47:00;;;;;;;53.70;7.90;;;8.10;99.90;;;;;;6189925;23;20017;-80
2023/12/11 03:49:27;;;;;;;48.70;6.35;;;8.10;99.90;;;;;;6189693;23;20345;-80
2023/12/11 03:51:53;;;;;;;38.22;6.20;;;8.00;99.90;;;;;;6189563;23;20013;-80
2023/12/11 03:54:21;;;;;;;45.22;6.40;;;8.00;99.90;;;;;;6189706;23;20027;-80
2023/12/11 03:56:46;;;;;;;44.03;8.52;;;8.10;99.90;;;;;;6216582;23;20012;-80
2023/12/11 03:59:12;;;;;;;48.70;7.13;;;8.10;99.90;;;;;;6189715;23;20067;-80
2023/12/11 04:01:38;;;;;;;51.33;7.80;;;8.10;99.90;;;;;;6189795;23;20020;-80
2023/12/11 04:04:04;;;;;;;45.80;7.30;;;8.10;99.90;;;;;;6189753;23;20500;-80
2023/12/11 04:06:30;;;;;;;43.80;7.30;;;8.10;99.90;;;;;;6216461;23;20023;-80
2023/12/11 04:08:55;;;;;;;48.72;6.80;;;8.10;99.90;;;;;;6189688;23;20036;-80
2023/12/11 04:11:21;;;;;;;50.90;7.97;;;8.10;99.90;;;;;;6189214;23;20040;-80
2023/12/11 04:13:47;;;;;;;54.33;8.25;;;8.10;99.90;;;;;;6189721;23;20024;-80
2023/12/11 04:16:13;;;;;;;60.10;7.72;;;8.10;99.90;;;;;;6189545;23;20016;-80
2023/12/11 04:18:39;;;;;;;39.58;5.85;;;8.10;99.90;;;;;;6189364;23;20024;-80
2023/12/11 04:21:05;;;;;;;51.60;7.70;;;8.10;99.90;;;;;;6189397;23;20016;-80
2023/12/11 04:23:31;;;;;;;57.35;9.32;;;8.10;99.90;;;;;;6189427;23;20055;-80
2023/12/11 04:25:59;;;;;;;53.38;7.22;;;8.10;99.90;;;;;;6216428;23;20023;-79
2023/12/11 04:28:25;;;;;;;48.83;9.70;;;8.20;99.90;;;;;;6189364;23;20020;-79
2023/12/11 04:30:51;;;;;;;53.10;8.05;;;8.20;99.90;;;;;;6189448;23;20471;-79
2023/12/11 04:33:17;;;;;;;55.42;8.05;;;8.20;99.90;;;;;;6189271;23;20051;-80
2023/12/11 04:35:42;;;;;;;47.63;8.38;;;8.10;99.90;;;;;;6216319;23;20013;-79
2023/12/11 04:38:08;;;;;;;49.28;6.63;;;8.10;99.90;;;;;;6189419;23;20437;-80
2023/12/11 04:40:34;;;;;;;54.08;7.78;;;8.10;99.90;;;;;;6189418;23;20021;-79
2023/12/11 04:43:00;;;;;;;49.47;6.90;;;8.10;99.90;;;;;;6189507;23;20009;-80
2023/12/11 04:45:26;;;;;;;54.28;6.32;;;8.10;99.90;;;;;;6216105;23;20052;-79
2023/12/11 04:47:51;;;;;;;53.50;6.03;;;8.10;99.90;;;;;;6216365;23;20098;-79
2023/12/11 04:50:18;;;;;;;46.58;7.28;;;8.10;99.90;;;;;;6189458;23;20008;-79
2023/12/11 04:52:43;;;;;;;53.33;7.32;;;8.10;99.90;;;;;;6189191;23;20024;-79
2023/12/11 04:55:12;;;;;;;47.75;6.13;;;8.10;99.90;;;;;;6215964;23;20035;-79
2023/12/11 04:57:38;;;;;;;39.45;6.32;;;8.10;99.90;;;;;;6189330;23;20021;-80
2023/12/11 05:00:04;;;;;;;41.25;6.57;;;8.20;99.90;;;;;;6189423;23;20024;-79
2023/12/11 05:02:30;;;;;;;42.22;5.53;;;8.20;99.90;;;;;;6189225;23;20503;-79
2023/12/11 05:04:56;;;;;;;49.10;8.43;;;8.20;99.90;;;;;;6189281;23;20092;-79
2023/12/11 05:07:22;;;;;;;54.83;6.35;;;8.20;99.90;;;;;;6189167;23;20099;-79
2023/12/11 05:09:48;;;;;;;29.58;5.60;;;8.20;99.90;;;;;;6215744;23;20079;-79
2023/12/11 05:12:15;;;;;;;41.00;5.40;;;8.20;99.90;;;;;;6189487;23;20028;-79
2023/12/11 05:14:40;;;;;;;47.08;7.22;;;8.20;99.90;;;;;;6191313;23;20020;-79
2023/12/11 05:17:06;;;;;;;50.80;7.35;;;8.20;99.90;;;;;;6191153;23;20020;-79
2023/12/11 05:19:32;;;;;;;47.88;6.38;;;8.20;99.90;;;;;;6191217;23;20067;-79
2023/12/11 05:21:58;;;;;;;41.78;5.68;;;8.30;99.90;;;;;;6191370;23;20464;-79
2023/12/11 05:24:24;;;;;;;41.33;5.88;;;8.30;99.90;;;;;;6191090;23;20016;-79
2023/12/11 05:26:50;;;;;;;39.63;6.18;;;8.20;99.90;;;;;;6217811;23;20021;-79
2023/12/11 05:29:16;;;;;;;52.78;6.55;;;8.30;99.90;;;;;;6191264;23;20031;-79
2023/12/11 05:31:42;;;;;;;40.60;5.63;;;8.20;99.90;;;;;;6217582;23;20021;-79
2023/12/11 05:34:08;;;;;;;37.80;4.68;;;8.20;99.90;;;;;;6191179;23;20021;-79
2023/12/11 05:36:36;;;;;;;38.08;5.43;;;8.20;99.90;;;;;;6191025;23;20021;-79
2023/12/11 05:39:02;;;;;;;35.60;6.45;;;8.20;99.90;;;;;;6190975;23;20052;-79
2023/12/11 05:41:27;;;;;;;45.78;6.20;;;8.20;99.90;;;;;;6190922;23;20025;-79
2023/12/11 05:43:53;;;;;;;38.45;7.55;;;8.20;99.90;;;;;;6191036;23;20025;-79
2023/12/11 05:46:19;;;;;;;44.30;6.80;;;8.20;99.90;;;;;;6190765;23;20040;-79
2023/12/11 05:48:44;;;;;;;37.80;5.15;;;8.20;99.90;;;;;;6190925;23;20021;-79
2023/12/11 05:51:10;;;;;;;36.15;5.93;;;8.20;99.90;;;;;;6190996;23;20017;-79
2023/12/11 05:53:35;;;;;;;53.00;6.13;;;8.20;99.90;;;;;;6190733;23;20024;-79
2023/12/11 05:56:01;;;;;;;32.95;5.82;;;8.20;99.90;;;;;;6190921;23;20016;-79
2023/12/11 05:58:27;;;;;;;42.08;5.38;;;8.20;99.90;;;;;;6190936;23;20016;-80
2023/12/11 06:00:52;;;;;;;44.13;5.63;;;8.20;99.90;;;;;;6217353;23;20012;-80
2023/12/11 06:03:18;;;;;;;33.97;4.50;;;8.30;99.90;;;;;;6190920;23;20013;-80
2023/12/11 06:05:43;;;;;;;48.05;6.75;;;8.20;99.90;;;;;;6190908;23;20016;-80
2023/12/11 06:08:09;;;;;;;36.25;5.03;;;8.20;99.90;;;;;;6190722;23;20052;-80
2023/12/11 06:10:38;;;;;;;33.15;6.18;;;8.20;99.90;;;;;;6190651;23;20452;-80
2023/12/11 06:13:03;;;;;;;43.28;7.88;;;8.20;99.90;;;;;;6217508;23;20027;-80
2023/12/11 06:15:29;;;;;;;38.40;7.90;;;8.20;99.90;;;;;;6218138;23;20340;-80
2023/12/11 06:17:55;;;;;;;33.33;6.03;;;8.30;99.90;;;;;;6190802;23;20348;-80
2023/12/11 06:20:20;;;;;;;36.50;6.72;;;8.30;99.90;;;;;;6190710;23;20027;-79
2023/12/11 06:22:47;;;;;;;33.50;9.27;;;8.30;99.90;;;;;;6217624;23;20344;-80
2023/12/11 06:25:13;;;;;;;45.25;10.75;;;8.20;99.90;;;;;;6216628;23;20021;-80
2023/12/11 06:27:38;;;;;;;40.40;12.15;;;8.30;99.90;;;;;;6217095;23;20012;-80
2023/12/11 06:30:06;;;;;;;35.92;7.38;;;8.20;99.90;;;;;;6190481;23;20044;-80
2023/12/11 06:32:32;;;;;;;32.50;7.95;;;8.30;99.90;;;;;;6190352;23;20027;-80
2023/12/11 06:34:58;;;;;;;33.53;7.40;;;8.20;99.90;;;;;;6190474;23;20021;-79
2023/12/11 06:37:23;;;;;;;34.67;6.82;;;8.30;99.90;;;;;;6190504;23;20017;-80
2023/12/11 06:39:49;;;;;;;25.52;6.93;;;8.20;99.90;;;;;;6190442;23;20103;-80
2023/12/11 06:42:14;;;;;;;25.48;6.43;;;8.20;99.90;;;;;;6217414;23;20044;-80
2023/12/11 06:44:40;;;;;;;27.42;5.18;;;8.30;99.90;;;;;;6190336;23;20009;-80
2023/12/11 06:47:06;;;;;;;33.03;6.78;;;8.30;99.90;;;;;;6190416;23;20326;-80
2023/12/11 06:49:31;;;;;;;31.90;6.53;;;8.30;99.90;;;;;;6190430;23;20099;-80
2023/12/11 06:51:57;;;;;;;32.28;8.65;;;8.30;99.90;;;;;;6190151;23;20429;-80
2023/12/11 06:54:23;;;;;;;28.17;6.90;;;8.30;99.90;;;;;;6190325;23;20075;-80
2023/12/11 06:56:49;;;;;;;31.27;7.07;;;8.30;99.90;;;;;;6190425;23;20012;-80
2023/12/11 06:59:14;;;;;;;22.73;7.00;;;8.20;99.90;;;;;;6190273;23;20349;-80
2023/12/11 07:01:40;;;;;;;30.08;7.78;;;8.20;99.90;;;;;;6190405;23;20456;-80
2023/12/11 07:04:07;;;;;;;33.83;9.15;;;8.20;99.90;;;;;;6190152;23;20020;-79
2023/12/11 07:06:32;;;;;;;41.53;6.45;;;8.20;99.90;;;;;;6190011;23;20020;-79
2023/12/11 07:08:58;;;;;;;29.80;4.97;;;8.20;99.90;;;;;;6190195;23;20012;-80
2023/12/11 07:11:24;;;;;;;42.65;5.63;;;8.20;99.90;;;;;;6189901;23;20048;-79
2023/12/11 07:13:50;;;;;;;33.25;4.68;;;8.10;99.90;;;;;;6190018;23;20028;-79
2023/12/11 07:16:16;;;;;;;25.92;4.20;;;8.20;99.90;;;;;;6190053;23;20035;-79
2023/12/11 07:18:42;;;;;;;34.40;4.63;;;8.10;99.90;;;;;;6190077;23;20024;-79
2023/12/11 07:21:09;;;;;;;24.40;4.25;;;8.10;99.90;;;;;;6190039;23;20337;-79
2023/12/11 07:23:36;;;;;;;24.05;4.82;;;8.10;99.90;;;;;;6216562;23;20052;-80
2023/12/11 07:26:04;;;;;;;24.80;4.05;;;8.10;99.90;;;;;;6216919;23;20055;-80
2023/12/11 07:28:29;;;;;;;24.60;6.63;;;8.10;99.90;;;;;;6190094;23;20370;-80
2023/12/11 07:30:55;;;;;;;29.33;7.55;;;8.20;99.90;;;;;;6190055;23;20120;-80
2023/12/11 07:33:21;;;;;;;30.73;8.10;;;8.20;99.90;;;;;;6216584;23;20020;-80
2023/12/11 07:35:46;;;;;;;29.58;7.30;;;8.10;99.90;;;;;;6189806;23;20020;-79
2023/12/11 07:38:12;;;;;;;31.75;9.95;;;8.10;99.90;;;;;;6189953;23;20330;-80
2023/12/11 07:40:37;;;;;;;22.98;13.50;;;8.10;99.90;;;;;;6190000;23;20016;-80
2023/12/11 07:43:08;;;;;;;21.70;8.13;;;8.10;99.90;;;;;;6189948;23;20020;-80
2023/12/11 07:45:34;;;;;;;22.40;6.63;;;8.10;99.90;;;;;;6216363;23;20027;-80
2023/12/11 07:47:59;;;;;;;23.15;4.97;;;8.10;99.90;;;;;;6189794;23;20400;-81
2023/12/11 07:50:25;;;;;;;20.13;5.38;;;8.10;99.90;;;;;;6189820;23;20036;-81
2023/12/11 07:52:51;;;;;;;16.30;4.03;;;8.10;99.90;;;;;;6189712;23;20012;-81
2023/12/11 07:55:16;;;;;;;21.17;3.38;;;8.10;99.90;;;;;;6189809;23;20028;-81
2023/12/11 07:57:42;;;;;;;21.45;4.00;;;8.10;99.90;;;;;;6189757;23;20020;-81
2023/12/11 08:00:09;;;;;;;21.13;5.80;;;8.10;99.90;;;;;;6189653;23;20017;-81
2023/12/11 08:02:37;;;;;;;28.48;6.05;;;8.10;99.90;;;;;;6189482;23;20016;-80
2023/12/11 08:05:03;;;;;;;26.73;6.40;;;8.10;99.90;;;;;;6189790;23;20021;-80
2023/12/11 08:07:29;;;;;;;29.58;5.03;;;8.10;99.90;;;;;;6216980;23;20067;-80
2023/12/11 08:09:55;;;;;;;20.17;5.10;;;8.10;99.90;;;;;;6189299;23;20025;-80
2023/12/11 08:12:21;;;;;;;29.48;4.70;;;8.10;99.90;;;;;;6189875;23;20025;-80
2023/12/11 08:14:46;;;;;;;35.00;5.63;;;8.10;99.90;;;;;;6189574;23;20444;-81
2023/12/11 08:17:12;;;;;;;27.42;4.63;;;8.10;99.90;;;;;;6215484;23;20013;-81
2023/12/11 08:19:38;;;;;;;27.02;4.90;;;8.10;99.90;;;;;;6189290;23;20012;-81
2023/12/11 08:22:04;;;;;;;31.95;5.70;;;8.10;99.90;;;;;;6189460;23;20095;-81
2023/12/11 08:24:30;;;;;;;23.63;4.43;;;8.10;99.90;;;;;;6215590;23;20074;-81
2023/12/11 08:26:57;;;;;;;20.38;3.95;;;8.10;99.90;;;;;;6190028;23;20021;-81
2023/12/11 08:29:23;;;;;;;28.05;8.07;;;8.00;99.90;;;;;;6216290;23;20467;-80
2023/12/11 08:31:49;;;;;;;28.85;7.32;;;8.00;99.90;;;;;;6189144;23;20020;-82
2023/12/11 08:34:15;;;;;;;26.45;6.82;;;8.00;99.90;;;;;;6188601;23;20020;-80
2023/12/11 08:36:41;;;;;;;24.95;6.93;;;8.00;99.90;;;;;;6215891;23;20023;-80
2023/12/11 08:39:06;;;;;;;27.77;6.00;;;8.10;99.90;;;;;;6189130;23;20053;-80
2023/12/11 08:41:33;;;;;;;35.70;14.45;;;8.10;99.90;;;;;;6189126;23;20099;-80
2023/12/11 08:43:59;;;;;;;25.20;6.18;;;8.10;99.90;;;;;;6189104;23;20023;-80
2023/12/11 08:46:25;;;;;;;27.75;5.53;;;8.10;99.90;;;;;;6189232;23;20021;-80
2023/12/11 08:48:50;;;;;;;28.48;4.95;;;8.20;99.90;;;;;;6188853;23;20020;-86
2023/12/11 08:51:19;;;;;;;31.90;4.68;;;8.10;99.90;;;;;;6189102;23;20019;-81
2023/12/11 08:53:45;;;;;;;21.58;4.47;;;8.20;99.90;;;;;;6188999;23;20024;-81
2023/12/11 08:56:12;;;;;;;32.00;5.85;;;8.20;99.90;;;;;;6188932;23;20019;-82
2023/12/11 08:58:38;;;;;;;22.55;4.57;;;8.20;99.90;;;;;;6189081;23;20345;-81
2023/12/11 09:01:03;;;;;;;27.15;4.10;;;8.20;99.90;;;;;;6189015;23;20434;-81
2023/12/11 09:03:29;;;;;;;30.67;4.57;;;8.20;99.90;;;;;;6188964;23;20017;-80
2023/12/11 09:05:55;;;;;;;28.00;5.00;;;8.20;99.90;;;;;;6188865;23;20314;-80
2023/12/11 09:08:21;;;;;;;27.60;4.05;;;8.20;99.90;;;;;;6188993;23;20345;-80
2023/12/11 09:10:47;;;;;;;24.52;3.90;;;8.10;99.90;;;;;;6188483;23;20016;-80
2023/12/11 09:13:13;;;;;;;16.98;3.90;;;8.20;99.90;;;;;;6188749;23;20024;-83
2023/12/11 09:15:38;;;;;;;24.25;4.10;;;8.30;99.90;;;;;;6188705;23;20076;-81
2023/12/11 09:18:06;;;;;;;24.63;3.67;;;8.40;99.90;;;;;;6188729;23;20027;-81
2023/12/11 09:20:32;;;;;;;21.67;4.53;;;8.40;99.90;;;;;;6188689;23;20072;-81
2023/12/11 09:22:57;;;;;;;25.70;4.50;;;8.40;99.90;;;;;;6188675;23;20024;-80
2023/12/11 09:25:23;;;;;;;29.05;4.60;;;8.30;99.90;;;;;;6215421;23;20092;-81
2023/12/11 09:30:15;;;;;;;30.63;4.63;;;8.10;99.90;;;;;;6212130;22;20102;-81
2023/12/11 09:32:42;;;;;;;28.17;4.82;;;8.10;99.90;;;;;;6188597;23;20032;-81
2023/12/11 09:35:08;;;;;;;33.97;4.60;;;8.10;99.90;;;;;;6188856;23;20067;-80
2023/12/11 09:37:34;;;;;;;22.52;3.78;;;8.00;99.90;;;;;;6215730;23;20314;-80
2023/12/11 09:39:59;;;;;;;26.40;4.80;;;7.90;99.90;;;;;;6188831;23;20437;-80
2023/12/11 09:42:26;;;;;;;28.98;3.85;;;7.90;99.90;;;;;;6188783;23;20017;-80
2023/12/11 09:44:52;;;;;;;26.75;3.97;;;7.90;99.90;;;;;;6188416;23;20027;-80
2023/12/11 09:47:28;;;;;;;38.28;4.75;;;7.90;99.90;;;;;;6188733;23;20016;-80
2023/12/11 09:49:54;;;;;;;31.52;4.10;;;7.90;99.90;;;;;;6215777;23;20017;-80
2023/12/11 09:52:22;;;;;;;32.92;4.38;;;7.90;99.90;;;;;;6188769;23;20515;-80
2023/12/11 09:54:47;;;;;;;36.60;4.18;;;7.90;99.90;;;;;;6188795;23;20017;-80
2023/12/11 09:57:15;;;;;;;31.88;4.88;;;7.80;99.90;;;;;;6188507;23;20013;-80
2023/12/11 09:59:41;;;;;;;27.23;4.70;;;7.80;99.90;;;;;;6189967;23;20020;-81
2023/12/11 10:02:14;;;;;;;24.88;3.53;;;7.90;99.90;;;;;;6190483;23;20019;-81
2023/12/11 10:05:10;;;;;;;23.15;3.78;;;7.90;99.90;;;;;;6190460;23;20046;-79
2023/12/11 10:07:41;;;;;;;34.38;3.95;;;8.00;99.90;;;;;;6190345;23;20040;-81
2023/12/11 10:10:25;;;;;;;20.77;3.33;;;8.10;99.90;;;;;;6190496;23;20021;-80
2023/12/11 10:12:51;;;;;;;18.02;2.85;;;8.20;99.90;;;;;;6190348;23;20020;-79
2023/12/11 10:15:22;;;;;;;24.00;4.40;;;8.20;99.90;;;;;;6217192;23;20012;-80
2023/12/11 10:18:05;;;;;;;23.25;3.03;;;8.30;99.90;;;;;;6190295;23;20441;-80
2023/12/11 10:20:35;;;;;;;27.88;4.07;;;8.30;99.90;;;;;;6190498;23;20028;-79
2023/12/11 10:23:18;;;;;;;16.63;3.53;;;8.30;99.90;;;;;;6216939;23;20043;-79
2023/12/11 10:26:05;;;;;;;25.80;4.22;;;8.30;99.90;;;;;;6190362;23;20008;-79
2023/12/11 10:28:30;;;;;;;20.40;3.15;;;8.30;99.90;;;;;;6190016;23;20017;-79
2023/12/11 10:31:01;;;;;;;21.75;2.90;;;8.30;99.90;;;;;;6217243;23;20059;-79
2023/12/11 10:33:32;;;;;;;24.83;4.95;;;8.30;99.90;;;;;;6190002;23;20016;-79
2023/12/11 10:36:12;;;;;;;31.45;3.92;;;8.30;99.90;;;;;;6190246;23;20094;-79
2023/12/11 10:38:41;;;;;;;31.42;5.00;;;8.30;99.90;;;;;;6190112;23;20060;-79
2023/12/11 10:41:07;;;;;;;34.88;4.10;;;8.40;99.90;;;;;;6190146;23;20019;-78
2023/12/11 10:43:40;;;;;;;32.72;4.82;;;8.30;99.90;;;;;;6190092;23;20024;-79
2023/12/11 10:46:07;;;;;;;22.02;3.60;;;8.30;99.90;;;;;;6216808;23;20532;-79
2023/12/11 10:48:35;;;;;;;28.08;3.65;;;8.30;99.90;;;;;;6190007;23;20017;-91
2023/12/11 10:51:03;;;;;;;27.48;5.10;;;8.30;99.90;;;;;;6190003;23;20071;-79
2023/12/11 10:53:29;;;;;;;33.25;4.55;;;8.40;99.90;;;;;;6216645;23;20020;-78
2023/12/11 10:55:56;;;;;;;30.73;3.47;;;8.30;99.90;;;;;;6189931;23;20013;-79
2023/12/11 10:58:22;;;;;;;23.17;3.60;;;8.40;99.90;;;;;;6189811;23;20046;-78
2023/12/11 11:00:48;;;;;;;16.85;3.90;;;8.40;99.90;;;;;;6189967;23;20378;-87
2023/12/11 11:03:14;;;;;;;20.13;2.85;;;8.40;99.90;;;;;;6189954;23;20024;-90
2023/12/11 11:05:40;;;;;;;24.65;2.90;;;8.40;99.90;;;;;;6189929;23;20035;-85
2023/12/11 11:08:36;;;;;;;18.35;3.30;;;8.40;99.90;;;;;;6189832;23;20017;-88
2023/12/11 11:11:13;;;;;;;12.75;2.28;;;8.40;99.90;;;;;;6189925;23;20441;-89
2023/12/11 11:14:04;;;;;;;23.70;2.95;;;8.40;99.90;;;;;;6190024;23;20016;-88
2023/12/11 11:16:53;;;;;;;17.42;2.47;;;8.40;99.90;;;;;;6189766;23;20463;-89
2023/12/11 11:19:20;;;;;;;16.13;3.42;;;8.40;99.90;;;;;;6171148;23;20021;-89
2023/12/11 11:22:08;;;;;;;23.77;2.70;;;8.40;99.90;;;;;;6189657;23;20023;-91
2023/12/11 11:24:35;;;;;;;15.98;2.22;;;8.40;99.90;;;;;;6171117;23;20027;-91
2023/12/11 11:27:02;;;;;;;17.45;2.50;;;8.40;99.90;;;;;;6189704;23;20020;-91
2023/12/11 11:29:44;;;;;;;20.63;3.25;;;8.50;99.90;;;;;;6189459;23;20515;-89
2023/12/11 11:32:13;;;;;;;20.30;3.00;;;8.50;99.90;;;;;;6189767;23;20031;-90
2023/12/11 11:34:41;;;;;;;16.50;3.78;;;8.50;99.90;;;;;;6189854;23;20028;-89
2023/12/11 11:37:17;;;;;;;19.00;2.88;;;8.50;99.90;;;;;;6189504;23;20071;-81
2023/12/11 11:40:03;;;;;;;21.05;3.30;;;8.50;99.90;;;;;;6189616;23;20024;-80
2023/12/11 11:42:33;;;;;;;12.20;2.17;;;8.40;99.90;;;;;;6189656;23;20017;-79
2023/12/11 11:45:00;;;;;;;18.60;2.22;;;8.50;99.90;;;;;;6216258;23;20387;-79
2023/12/11 11:47:27;;;;;;;16.45;2.58;;;8.40;99.90;;;;;;6189340;23;20092;-79
2023/12/11 11:49:53;;;;;;;16.67;1.85;;;8.50;99.90;;;;;;6189419;23;20028;-79
2023/12/11 11:52:27;;;;;;;13.85;2.58;;;8.40;99.90;;;;;;6189351;23;20021;-79
2023/12/11 11:54:59;;;;;;;13.02;2.40;;;8.50;99.90;;;;;;6189479;23;20017;-80
2023/12/11 11:57:28;;;;;;;18.35;3.03;;;8.50;99.90;;;;;;6189374;23;20088;-78
2023/12/11 11:59:57;;;;;;;19.35;4.10;;;8.50;99.90;;;;;;6189377;23;20055;-79
2023/12/11 12:02:23;;;;;;;20.83;2.85;;;8.60;99.90;;;;;;6216119;23;20017;-79
2023/12/11 12:04:49;;;;;;;22.25;2.60;;;8.70;99.90;;;;;;6189399;23;20017;-79
2023/12/11 12:07:15;;;;;;;19.77;3.45;;;8.60;99.90;;;;;;6216288;23;20096;-78
2023/12/11 12:09:41;;;;;;;31.23;5.07;;;8.50;99.90;;;;;;6189367;23;20349;-79
2023/12/11 12:12:13;;;;;;;24.98;3.85;;;8.50;99.90;;;;;;6189195;23;20016;-80
2023/12/11 12:14:39;;;;;;;18.65;2.97;;;8.50;99.90;;;;;;6189114;23;20020;-80
2023/12/11 12:17:11;;;;;;;20.65;3.25;;;8.50;99.90;;;;;;6189152;23;20075;-79
2023/12/11 12:19:37;;;;;;;18.80;3.17;;;8.50;99.90;;;;;;6188899;23;20377;-80
2023/12/11 12:22:03;;;;;;;22.02;3.75;;;8.50;99.90;;;;;;6189255;23;20086;-78
2023/12/11 12:24:40;;;;;;;16.35;3.80;;;8.50;99.90;;;;;;6189119;23;20021;-80
2023/12/11 12:27:11;;;;;;;24.17;3.58;;;8.50;99.90;;;;;;6188958;23;20437;-80
2023/12/11 12:29:41;;;;;;;25.30;3.85;;;8.50;99.90;;;;;;6188686;23;20448;-80
2023/12/11 12:32:08;;;;;;;16.75;2.70;;;8.50;99.90;;;;;;6188710;23;20440;-80
2023/12/11 12:34:36;;;;;;;18.35;2.38;;;8.50;99.90;;;;;;6188985;23;20016;-80
2023/12/11 12:37:03;;;;;;;17.83;2.70;;;8.40;99.90;;;;;;6189137;23;20024;-80
2023/12/11 12:39:28;;;;;;;16.48;2.70;;;8.40;99.90;;;;;;6189114;23;20449;-80
2023/12/11 12:41:54;;;;;;;17.38;2.00;;;8.40;99.90;;;;;;6189295;23;20020;-80
2023/12/11 12:44:20;;;;;;;14.60;2.05;;;8.40;99.90;;;;;;6189148;23;20013;-80
2023/12/11 12:46:46;;;;;;;20.08;2.35;;;8.40;99.90;;;;;;6189383;23;20381;-80